sensor_id;sensor_type;location;lat;lon;timestamp;pressure;altitude;pressure_sealevel;temperature;humidity
28606;BME280;46498;49.968;7.754;2023-03-23T00:04:42;96279.00;;;11.77;62.23
28606;BME280;46498;49.968;7.754;2023-03-23T00:09:43;96287.00;;;11.77;62.94
28606;BME280;46498;49.968;7.754;2023-03-23T00:14:43;96275.00;;;11.71;63.86
28606;BME280;46498;49.968;7.754;2023-03-23T00:19:44;96280.00;;;11.78;63.89
28606;BME280;46498;49.968;7.754;2023-03-23T00:24:48;96256.00;;;11.69;64.50
28606;BME280;46498;49.968;7.754;2023-03-23T00:29:50;96262.00;;;11.68;65.23
28606;BME280;46498;49.968;7.754;2023-03-23T00:34:55;96247.00;;;11.74;64.75
28606;BME280;46498;49.968;7.754;2023-03-23T00:39:56;96243.00;;;11.61;65.65
28606;BME280;46498;49.968;7.754;2023-03-23T00:44:57;96254.00;;;11.55;66.02
28606;BME280;46498;49.968;7.754;2023-03-23T00:50:02;96238.00;;;11.63;65.88
28606;BME280;46498;49.968;7.754;2023-03-23T00:55:03;96250.00;;;11.67;65.85
28606;BME280;46498;49.968;7.754;2023-03-23T01:00:05;96256.00;;;11.69;65.53
28606;BME280;46498;49.968;7.754;2023-03-23T01:05:12;96264.00;;;11.57;67.10
28606;BME280;46498;49.968;7.754;2023-03-23T01:10:14;96248.00;;;11.55;67.63
28606;BME280;46498;49.968;7.754;2023-03-23T01:15:19;96230.00;;;11.52;67.41
28606;BME280;46498;49.968;7.754;2023-03-23T01:20:20;96233.00;;;11.47;68.64
28606;BME280;46498;49.968;7.754;2023-03-23T01:25:22;96224.00;;;11.45;68.04
28606;BME280;46498;49.968;7.754;2023-03-23T01:30:23;96209.00;;;11.46;68.16
28606;BME280;46498;49.968;7.754;2023-03-23T01:35:24;96220.00;;;11.43;68.54
28606;BME280;46498;49.968;7.754;2023-03-23T01:40:26;96212.00;;;11.46;67.73
28606;BME280;46498;49.968;7.754;2023-03-23T01:45:36;96204.00;;;11.50;68.03
28606;BME280;46498;49.968;7.754;2023-03-23T01:50:43;96206.00;;;11.44;67.97
28606;BME280;46498;49.968;7.754;2023-03-23T01:55:47;96204.00;;;11.43;68.97
28606;BME280;46498;49.968;7.754;2023-03-23T02:00:52;96212.00;;;11.44;69.28
28606;BME280;46498;49.968;7.754;2023-03-23T02:05:54;96199.00;;;11.43;70.83
28606;BME280;46498;49.968;7.754;2023-03-23T02:11:14;96201.00;;;11.28;73.90
28606;BME280;46498;49.968;7.754;2023-03-23T02:16:27;96182.00;;;11.18;76.99
28606;BME280;46498;49.968;7.754;2023-03-23T02:21:51;96188.00;;;11.14;78.19
28606;BME280;46498;49.968;7.754;2023-03-23T02:26:57;96173.00;;;11.12;78.78
28606;BME280;46498;49.968;7.754;2023-03-23T02:32:24;96172.00;;;11.04;80.31
28606;BME280;46498;49.968;7.754;2023-03-23T02:37:40;96164.00;;;11.00;82.61
28606;BME280;46498;49.968;7.754;2023-03-23T02:42:47;96173.00;;;10.87;85.45
28606;BME280;46498;49.968;7.754;2023-03-23T02:47:52;96165.00;;;10.75;92.02
28606;BME280;46498;49.968;7.754;2023-03-23T02:52:55;96156.00;;;10.57;93.87
28606;BME280;46498;49.968;7.754;2023-03-23T02:57:59;96148.00;;;10.45;98.13
28606;BME280;46498;49.968;7.754;2023-03-23T03:03:04;96144.00;;;10.28;99.14
28606;BME280;46498;49.968;7.754;2023-03-23T03:08:15;96147.00;;;10.24;100.00
28606;BME280;46498;49.968;7.754;2023-03-23T03:14:24;96134.00;;;10.21;100.00
28606;BME280;46498;49.968;7.754;2023-03-23T03:19:40;96146.00;;;10.27;99.95
28606;BME280;46498;49.968;7.754;2023-03-23T03:24:43;96146.00;;;10.32;100.00
28606;BME280;46498;49.968;7.754;2023-03-23T03:29:47;96155.00;;;10.40;98.74
28606;BME280;46498;49.968;7.754;2023-03-23T03:34:51;96162.00;;;10.43;98.76
28606;BME280;46498;49.968;7.754;2023-03-23T03:39:53;96158.00;;;10.38;99.41
28606;BME280;46498;49.968;7.754;2023-03-23T03:44:54;96153.00;;;10.44;99.81
28606;BME280;46498;49.968;7.754;2023-03-23T03:49:54;96148.00;;;10.39;99.37
28606;BME280;46498;49.968;7.754;2023-03-23T03:54:55;96165.00;;;10.45;99.55
28606;BME280;46498;49.968;7.754;2023-03-23T03:59:56;96162.00;;;10.32;99.96
28606;BME280;46498;49.968;7.754;2023-03-23T04:05:15;96174.00;;;10.31;100.00
28606;BME280;46498;49.968;7.754;2023-03-23T04:10:18;96167.00;;;10.37;100.00
28606;BME280;46498;49.968;7.754;2023-03-23T04:15:22;96174.00;;;10.28;100.00
28606;BME280;46498;49.968;7.754;2023-03-23T04:20:24;96168.00;;;10.36;100.00
28606;BME280;46498;49.968;7.754;2023-03-23T04:25:25;96164.00;;;10.28;100.00
28606;BME280;46498;49.968;7.754;2023-03-23T04:30:28;96158.00;;;10.24;100.00
28606;BME280;46498;49.968;7.754;2023-03-23T04:35:49;96166.00;;;10.26;100.00
28606;BME280;46498;49.968;7.754;2023-03-23T04:40:57;96167.00;;;10.19;100.00
28606;BME280;46498;49.968;7.754;2023-03-23T04:48:37;96167.00;;;10.13;100.00
28606;BME280;46498;49.968;7.754;2023-03-23T04:53:44;96178.00;;;10.03;100.00
28606;BME280;46498;49.968;7.754;2023-03-23T04:58:46;96191.00;;;10.00;100.00
28606;BME280;46498;49.968;7.754;2023-03-23T05:03:56;96174.00;;;9.94;100.00
28606;BME280;46498;49.968;7.754;2023-03-23T05:08:57;96170.00;;;9.91;100.00
28606;BME280;46498;49.968;7.754;2023-03-23T05:13:58;96179.00;;;9.94;100.00
28606;BME280;46498;49.968;7.754;2023-03-23T05:18:59;96186.00;;;9.90;100.00
28606;BME280;46498;49.968;7.754;2023-03-23T05:24:00;96170.00;;;9.91;100.00
28606;BME280;46498;49.968;7.754;2023-03-23T05:29:02;96176.00;;;9.81;100.00
28606;BME280;46498;49.968;7.754;2023-03-23T05:34:14;96184.00;;;9.88;100.00
28606;BME280;46498;49.968;7.754;2023-03-23T05:39:27;96181.00;;;9.86;100.00
28606;BME280;46498;49.968;7.754;2023-03-23T05:44:40;96188.00;;;9.82;100.00
28606;BME280;46498;49.968;7.754;2023-03-23T05:49:40;96188.00;;;9.82;100.00
28606;BME280;46498;49.968;7.754;2023-03-23T05:54:43;96190.00;;;9.83;100.00
28606;BME280;46498;49.968;7.754;2023-03-23T05:59:44;96191.00;;;9.78;100.00
28606;BME280;46498;49.968;7.754;2023-03-23T06:04:51;96180.00;;;9.80;100.00
28606;BME280;46498;49.968;7.754;2023-03-23T06:10:08;96190.00;;;9.96;100.00
28606;BME280;46498;49.968;7.754;2023-03-23T06:15:13;96205.00;;;9.84;100.00
28606;BME280;46498;49.968;7.754;2023-03-23T06:20:39;96215.00;;;9.80;100.00
28606;BME280;46498;49.968;7.754;2023-03-23T06:27:02;96214.00;;;9.83;100.00
28606;BME280;46498;49.968;7.754;2023-03-23T06:32:04;96219.00;;;9.84;100.00
28606;BME280;46498;49.968;7.754;2023-03-23T06:37:06;96215.00;;;9.84;100.00
28606;BME280;46498;49.968;7.754;2023-03-23T06:42:12;96219.00;;;9.83;100.00
28606;BME280;46498;49.968;7.754;2023-03-23T06:47:16;96229.00;;;9.84;100.00
28606;BME280;46498;49.968;7.754;2023-03-23T06:52:22;96231.00;;;9.87;100.00
28606;BME280;46498;49.968;7.754;2023-03-23T06:57:27;96246.00;;;9.93;100.00
28606;BME280;46498;49.968;7.754;2023-03-23T07:02:29;96241.00;;;9.93;100.00
28606;BME280;46498;49.968;7.754;2023-03-23T07:07:30;96234.00;;;9.85;100.00
28606;BME280;46498;49.968;7.754;2023-03-23T07:13:17;96256.00;;;9.93;100.00
28606;BME280;46498;49.968;7.754;2023-03-23T07:18:23;96251.00;;;10.03;100.00
28606;BME280;46498;49.968;7.754;2023-03-23T07:23:29;96251.00;;;10.08;100.00
28606;BME280;46498;49.968;7.754;2023-03-23T07:28:35;96240.00;;;10.21;100.00
28606;BME280;46498;49.968;7.754;2023-03-23T07:33:45;96262.00;;;10.32;100.00
28606;BME280;46498;49.968;7.754;2023-03-23T07:38:46;96273.00;;;10.32;100.00
28606;BME280;46498;49.968;7.754;2023-03-23T07:43:49;96273.00;;;10.37;100.00
28606;BME280;46498;49.968;7.754;2023-03-23T07:48:56;96268.00;;;10.44;100.00
28606;BME280;46498;49.968;7.754;2023-03-23T07:54:02;96263.00;;;10.46;100.00
28606;BME280;46498;49.968;7.754;2023-03-23T08:02:35;96273.00;;;10.56;100.00
28606;BME280;46498;49.968;7.754;2023-03-23T08:08:59;96284.00;;;10.58;100.00
28606;BME280;46498;49.968;7.754;2023-03-23T08:14:19;96290.00;;;10.62;100.00
28606;BME280;46498;49.968;7.754;2023-03-23T08:19:39;96296.00;;;10.75;100.00
28606;BME280;46498;49.968;7.754;2023-03-23T08:24:55;96303.00;;;11.00;100.00
28606;BME280;46498;49.968;7.754;2023-03-23T08:30:30;96297.00;;;11.16;100.00
28606;BME280;46498;49.968;7.754;2023-03-23T08:35:55;96303.00;;;11.57;99.48
28606;BME280;46498;49.968;7.754;2023-03-23T08:43:34;96303.00;;;11.72;88.62
28606;BME280;46498;49.968;7.754;2023-03-23T08:48:53;96289.00;;;11.73;84.17
28606;BME280;46498;49.968;7.754;2023-03-23T08:54:20;96286.00;;;11.75;83.02
28606;BME280;46498;49.968;7.754;2023-03-23T08:59:39;96305.00;;;11.74;81.34
28606;BME280;46498;49.968;7.754;2023-03-23T09:05:02;96306.00;;;11.87;81.25
28606;BME280;46498;49.968;7.754;2023-03-23T09:10:29;96312.00;;;11.99;79.57
28606;BME280;46498;49.968;7.754;2023-03-23T09:15:30;96321.00;;;11.97;82.03
28606;BME280;46498;49.968;7.754;2023-03-23T09:20:32;96325.00;;;11.70;88.46
28606;BME280;46498;49.968;7.754;2023-03-23T09:25:33;96334.00;;;11.35;91.46
28606;BME280;46498;49.968;7.754;2023-03-23T09:30:34;96323.00;;;11.33;92.66
28606;BME280;46498;49.968;7.754;2023-03-23T09:35:37;96334.00;;;11.39;89.94
28606;BME280;46498;49.968;7.754;2023-03-23T09:49:48;96329.00;;;11.37;88.75
28606;BME280;46498;49.968;7.754;2023-03-23T09:54:53;96325.00;;;11.56;91.22
28606;BME280;46498;49.968;7.754;2023-03-23T10:00:30;96343.00;;;11.56;88.57
28606;BME280;46498;49.968;7.754;2023-03-23T10:05:52;96345.00;;;11.49;89.30
28606;BME280;46498;49.968;7.754;2023-03-23T10:21:14;96346.00;;;11.45;90.16
28606;BME280;46498;49.968;7.754;2023-03-23T10:28:03;96342.00;;;11.39;92.90
28606;BME280;46498;49.968;7.754;2023-03-23T10:33:25;96354.00;;;11.37;95.95
28606;BME280;46498;49.968;7.754;2023-03-23T10:38:34;96349.00;;;11.66;95.70
28606;BME280;46498;49.968;7.754;2023-03-23T10:43:35;96344.00;;;12.05;94.09
28606;BME280;46498;49.968;7.754;2023-03-23T10:48:37;96334.00;;;12.29;91.70
28606;BME280;46498;49.968;7.754;2023-03-23T10:54:01;96349.00;;;12.19;87.83
28606;BME280;46498;49.968;7.754;2023-03-23T10:59:21;96346.00;;;12.01;92.33
28606;BME280;46498;49.968;7.754;2023-03-23T11:04:23;96347.00;;;12.42;93.76
28606;BME280;46498;49.968;7.754;2023-03-23T11:09:38;96357.00;;;12.68;86.77
28606;BME280;46498;49.968;7.754;2023-03-23T11:14:39;96356.00;;;12.43;89.95
28606;BME280;46498;49.968;7.754;2023-03-23T11:19:42;96356.00;;;12.06;89.85
28606;BME280;46498;49.968;7.754;2023-03-23T11:24:46;96355.00;;;11.87;92.79
28606;BME280;46498;49.968;7.754;2023-03-23T11:29:52;96366.00;;;11.77;95.94
28606;BME280;46498;49.968;7.754;2023-03-23T11:34:58;96367.00;;;11.60;99.27
28606;BME280;46498;49.968;7.754;2023-03-23T11:40:16;96375.00;;;11.79;98.07
28606;BME280;46498;49.968;7.754;2023-03-23T11:45:47;96369.00;;;11.63;98.73
28606;BME280;46498;49.968;7.754;2023-03-23T11:51:01;96375.00;;;11.69;100.00
28606;BME280;46498;49.968;7.754;2023-03-23T11:56:26;96371.00;;;12.35;97.09
28606;BME280;46498;49.968;7.754;2023-03-23T12:01:53;96354.00;;;12.54;93.17
28606;BME280;46498;49.968;7.754;2023-03-23T12:18:58;96313.00;;;12.49;90.41
28606;BME280;46498;49.968;7.754;2023-03-23T12:24:33;96296.00;;;12.75;88.84
28606;BME280;46498;49.968;7.754;2023-03-23T12:30:40;96296.00;;;13.18;86.89
28606;BME280;46498;49.968;7.754;2023-03-23T12:44:45;96311.00;;;13.22;88.12
28606;BME280;46498;49.968;7.754;2023-03-23T12:49:53;96316.00;;;12.86;88.01
28606;BME280;46498;49.968;7.754;2023-03-23T12:55:21;96321.00;;;12.70;88.04
28606;BME280;46498;49.968;7.754;2023-03-23T13:00:27;96319.00;;;12.56;92.04
28606;BME280;46498;49.968;7.754;2023-03-23T13:05:38;96302.00;;;12.38;95.68
28606;BME280;46498;49.968;7.754;2023-03-23T13:10:48;96303.00;;;12.78;92.69
28606;BME280;46498;49.968;7.754;2023-03-23T13:16:18;96298.00;;;13.10;87.23
28606;BME280;46498;49.968;7.754;2023-03-23T13:21:31;96296.00;;;12.77;87.04
28606;BME280;46498;49.968;7.754;2023-03-23T13:26:37;96299.00;;;12.63;88.13
28606;BME280;46498;49.968;7.754;2023-03-23T13:31:40;96296.00;;;12.43;89.18
28606;BME280;46498;49.968;7.754;2023-03-23T13:36:44;96292.00;;;12.58;88.61
28606;BME280;46498;49.968;7.754;2023-03-23T13:42:18;96302.00;;;12.67;89.71
28606;BME280;46498;49.968;7.754;2023-03-23T13:47:34;96308.00;;;12.45;91.10
28606;BME280;46498;49.968;7.754;2023-03-23T13:52:51;96317.00;;;12.19;94.79
28606;BME280;46498;49.968;7.754;2023-03-23T13:59:04;96317.00;;;11.89;98.37
28606;BME280;46498;49.968;7.754;2023-03-23T14:04:07;96323.00;;;11.86;98.47
28606;BME280;46498;49.968;7.754;2023-03-23T14:09:21;96320.00;;;11.84;95.27
28606;BME280;46498;49.968;7.754;2023-03-23T14:14:31;96317.00;;;12.04;93.57
28606;BME280;46498;49.968;7.754;2023-03-23T14:19:33;96323.00;;;11.99;91.25
28606;BME280;46498;49.968;7.754;2023-03-23T14:24:40;96314.00;;;12.07;89.82
28606;BME280;46498;49.968;7.754;2023-03-23T14:29:41;96297.00;;;12.24;86.65
28606;BME280;46498;49.968;7.754;2023-03-23T14:34:42;96318.00;;;12.26;86.26
28606;BME280;46498;49.968;7.754;2023-03-23T14:39:46;96310.00;;;12.15;88.07
28606;BME280;46498;49.968;7.754;2023-03-23T14:44:49;96322.00;;;12.12;88.98
28606;BME280;46498;49.968;7.754;2023-03-23T14:49:57;96308.00;;;11.96;92.70
28606;BME280;46498;49.968;7.754;2023-03-23T14:55:13;96301.00;;;11.91;92.48
28606;BME280;46498;49.968;7.754;2023-03-23T15:00:31;96312.00;;;11.84;94.19
28606;BME280;46498;49.968;7.754;2023-03-23T15:05:35;96310.00;;;11.92;92.87
28606;BME280;46498;49.968;7.754;2023-03-23T15:10:38;96316.00;;;12.00;92.21
28606;BME280;46498;49.968;7.754;2023-03-23T15:15:39;96318.00;;;11.92;90.91
28606;BME280;46498;49.968;7.754;2023-03-23T15:20:48;96323.00;;;11.93;91.58
28606;BME280;46498;49.968;7.754;2023-03-23T15:25:51;96313.00;;;11.98;91.33
28606;BME280;46498;49.968;7.754;2023-03-23T15:30:55;96314.00;;;12.07;92.32
28606;BME280;46498;49.968;7.754;2023-03-23T15:35:58;96319.00;;;12.14;92.49
28606;BME280;46498;49.968;7.754;2023-03-23T15:41:05;96309.00;;;12.04;91.94
28606;BME280;46498;49.968;7.754;2023-03-23T15:46:25;96314.00;;;12.09;92.15
28606;BME280;46498;49.968;7.754;2023-03-23T15:51:29;96312.00;;;11.91;93.43
28606;BME280;46498;49.968;7.754;2023-03-23T15:56:30;96307.00;;;11.77;94.76
28606;BME280;46498;49.968;7.754;2023-03-23T16:01:31;96304.00;;;11.79;94.83
28606;BME280;46498;49.968;7.754;2023-03-23T16:06:34;96301.00;;;11.79;94.68
28606;BME280;46498;49.968;7.754;2023-03-23T16:11:36;96305.00;;;11.85;94.86
28606;BME280;46498;49.968;7.754;2023-03-23T16:16:48;96301.00;;;11.99;93.81
28606;BME280;46498;49.968;7.754;2023-03-23T16:21:51;96304.00;;;12.00;93.94
28606;BME280;46498;49.968;7.754;2023-03-23T16:26:52;96306.00;;;11.93;93.93
28606;BME280;46498;49.968;7.754;2023-03-23T16:31:53;96307.00;;;11.96;92.45
28606;BME280;46498;49.968;7.754;2023-03-23T16:36:54;96302.00;;;11.83;93.01
28606;BME280;46498;49.968;7.754;2023-03-23T16:41:56;96301.00;;;11.79;92.80
28606;BME280;46498;49.968;7.754;2023-03-23T16:46:56;96293.00;;;11.83;93.16
28606;BME280;46498;49.968;7.754;2023-03-23T16:51:57;96301.00;;;11.81;92.69
28606;BME280;46498;49.968;7.754;2023-03-23T16:56:58;96292.00;;;11.75;92.82
28606;BME280;46498;49.968;7.754;2023-03-23T17:01:59;96292.00;;;11.73;93.83
28606;BME280;46498;49.968;7.754;2023-03-23T17:07:03;96287.00;;;11.67;93.51
28606;BME280;46498;49.968;7.754;2023-03-23T17:12:04;96293.00;;;11.63;94.07
28606;BME280;46498;49.968;7.754;2023-03-23T17:17:05;96296.00;;;11.53;96.20
28606;BME280;46498;49.968;7.754;2023-03-23T17:22:06;96292.00;;;11.50;97.93
28606;BME280;46498;49.968;7.754;2023-03-23T17:27:07;96299.00;;;11.41;99.71
28606;BME280;46498;49.968;7.754;2023-03-23T17:32:09;96295.00;;;11.35;100.00
28606;BME280;46498;49.968;7.754;2023-03-23T17:37:10;96290.00;;;11.27;100.00
28606;BME280;46498;49.968;7.754;2023-03-23T17:42:11;96291.00;;;11.25;100.00
28606;BME280;46498;49.968;7.754;2023-03-23T17:47:12;96298.00;;;11.18;100.00
28606;BME280;46498;49.968;7.754;2023-03-23T17:52:13;96287.00;;;11.08;100.00
28606;BME280;46498;49.968;7.754;2023-03-23T17:57:14;96292.00;;;11.11;100.00
28606;BME280;46498;49.968;7.754;2023-03-23T18:02:15;96287.00;;;11.02;100.00
28606;BME280;46498;49.968;7.754;2023-03-23T18:07:18;96291.00;;;10.93;100.00
28606;BME280;46498;49.968;7.754;2023-03-23T18:12:23;96289.00;;;11.00;100.00
28606;BME280;46498;49.968;7.754;2023-03-23T18:17:24;96294.00;;;10.98;100.00
28606;BME280;46498;49.968;7.754;2023-03-23T18:22:25;96288.00;;;10.93;100.00
28606;BME280;46498;49.968;7.754;2023-03-23T18:27:26;96286.00;;;10.95;100.00
28606;BME280;46498;49.968;7.754;2023-03-23T18:32:27;96296.00;;;10.94;100.00
28606;BME280;46498;49.968;7.754;2023-03-23T18:37:28;96286.00;;;10.81;100.00
28606;BME280;46498;49.968;7.754;2023-03-23T18:42:29;96294.00;;;10.81;100.00
28606;BME280;46498;49.968;7.754;2023-03-23T18:47:30;96294.00;;;10.68;100.00
28606;BME280;46498;49.968;7.754;2023-03-23T18:52:34;96289.00;;;10.77;100.00
28606;BME280;46498;49.968;7.754;2023-03-23T18:57:38;96275.00;;;10.68;100.00
28606;BME280;46498;49.968;7.754;2023-03-23T19:02:40;96280.00;;;10.71;100.00
28606;BME280;46498;49.968;7.754;2023-03-23T19:07:41;96271.00;;;10.64;100.00
28606;BME280;46498;49.968;7.754;2023-03-23T19:12:43;96277.00;;;10.62;100.00
28606;BME280;46498;49.968;7.754;2023-03-23T19:17:44;96271.00;;;10.66;100.00
28606;BME280;46498;49.968;7.754;2023-03-23T19:22:45;96275.00;;;10.61;100.00
28606;BME280;46498;49.968;7.754;2023-03-23T19:27:46;96268.00;;;10.57;100.00
28606;BME280;46498;49.968;7.754;2023-03-23T19:33:53;96272.00;;;10.59;100.00
28606;BME280;46498;49.968;7.754;2023-03-23T19:38:59;96263.00;;;10.60;100.00
28606;BME280;46498;49.968;7.754;2023-03-23T19:44:05;96254.00;;;10.65;100.00
28606;BME280;46498;49.968;7.754;2023-03-23T19:49:07;96246.00;;;10.67;100.00
28606;BME280;46498;49.968;7.754;2023-03-23T19:54:09;96243.00;;;10.63;100.00
28606;BME280;46498;49.968;7.754;2023-03-23T19:59:11;96236.00;;;10.61;100.00
28606;BME280;46498;49.968;7.754;2023-03-23T20:04:14;96233.00;;;10.66;100.00
28606;BME280;46498;49.968;7.754;2023-03-23T20:09:18;96230.00;;;10.50;100.00
28606;BME280;46498;49.968;7.754;2023-03-23T20:14:18;96233.00;;;10.50;100.00
28606;BME280;46498;49.968;7.754;2023-03-23T20:19:19;96240.00;;;10.60;100.00
28606;BME280;46498;49.968;7.754;2023-03-23T20:24:21;96229.00;;;10.61;100.00
28606;BME280;46498;49.968;7.754;2023-03-23T20:29:23;96214.00;;;10.60;100.00
28606;BME280;46498;49.968;7.754;2023-03-23T20:34:24;96216.00;;;10.62;100.00
28606;BME280;46498;49.968;7.754;2023-03-23T20:39:30;96205.00;;;10.63;100.00
28606;BME280;46498;49.968;7.754;2023-03-23T20:44:32;96214.00;;;10.69;100.00
28606;BME280;46498;49.968;7.754;2023-03-23T20:49:36;96210.00;;;10.74;100.00
28606;BME280;46498;49.968;7.754;2023-03-23T20:54:38;96214.00;;;10.62;100.00
28606;BME280;46498;49.968;7.754;2023-03-23T20:59:40;96214.00;;;10.71;100.00
28606;BME280;46498;49.968;7.754;2023-03-23T21:04:41;96208.00;;;10.75;100.00
28606;BME280;46498;49.968;7.754;2023-03-23T21:09:44;96202.00;;;10.63;100.00
28606;BME280;46498;49.968;7.754;2023-03-23T21:14:45;96203.00;;;10.75;100.00
28606;BME280;46498;49.968;7.754;2023-03-23T21:19:46;96195.00;;;10.71;100.00
28606;BME280;46498;49.968;7.754;2023-03-23T21:24:47;96197.00;;;10.63;100.00
28606;BME280;46498;49.968;7.754;2023-03-23T21:29:50;96195.00;;;10.66;100.00
28606;BME280;46498;49.968;7.754;2023-03-23T21:34:51;96178.00;;;10.65;100.00
28606;BME280;46498;49.968;7.754;2023-03-23T21:39:52;96177.00;;;10.61;100.00
28606;BME280;46498;49.968;7.754;2023-03-23T21:44:53;96172.00;;;10.73;100.00
28606;BME280;46498;49.968;7.754;2023-03-23T21:49:56;96169.00;;;10.63;100.00
28606;BME280;46498;49.968;7.754;2023-03-23T21:54:58;96171.00;;;10.74;100.00
28606;BME280;46498;49.968;7.754;2023-03-23T21:59:59;96169.00;;;10.63;100.00
28606;BME280;46498;49.968;7.754;2023-03-23T22:05:04;96168.00;;;10.62;100.00
28606;BME280;46498;49.968;7.754;2023-03-23T22:10:07;96173.00;;;10.69;100.00
28606;BME280;46498;49.968;7.754;2023-03-23T22:15:11;96170.00;;;10.67;100.00
28606;BME280;46498;49.968;7.754;2023-03-23T22:20:12;96170.00;;;10.57;100.00
28606;BME280;46498;49.968;7.754;2023-03-23T22:25:14;96155.00;;;10.61;100.00
28606;BME280;46498;49.968;7.754;2023-03-23T22:30:15;96150.00;;;10.60;100.00
28606;BME280;46498;49.968;7.754;2023-03-23T22:35:16;96140.00;;;10.71;100.00
28606;BME280;46498;49.968;7.754;2023-03-23T22:40:17;96138.00;;;10.64;100.00
28606;BME280;46498;49.968;7.754;2023-03-23T22:45:19;96133.00;;;10.57;100.00
28606;BME280;46498;49.968;7.754;2023-03-23T22:50:20;96118.00;;;10.67;100.00
28606;BME280;46498;49.968;7.754;2023-03-23T22:55:23;96102.00;;;10.65;100.00
28606;BME280;46498;49.968;7.754;2023-03-23T23:00:24;96099.00;;;10.60;100.00
28606;BME280;46498;49.968;7.754;2023-03-23T23:05:25;96103.00;;;10.52;100.00
28606;BME280;46498;49.968;7.754;2023-03-23T23:10:26;96083.00;;;10.45;100.00
28606;BME280;46498;49.968;7.754;2023-03-23T23:15:28;96078.00;;;10.50;100.00
28606;BME280;46498;49.968;7.754;2023-03-23T23:20:30;96054.00;;;10.54;100.00
28606;BME280;46498;49.968;7.754;2023-03-23T23:25:31;96051.00;;;10.39;100.00
28606;BME280;46498;49.968;7.754;2023-03-23T23:30:33;96050.00;;;10.30;100.00
28606;BME280;46498;49.968;7.754;2023-03-23T23:35:36;96050.00;;;10.37;100.00
28606;BME280;46498;49.968;7.754;2023-03-23T23:40:38;96044.00;;;10.38;100.00
28606;BME280;46498;49.968;7.754;2023-03-23T23:45:41;96047.00;;;10.23;100.00
28606;BME280;46498;49.968;7.754;2023-03-23T23:50:42;96047.00;;;10.26;100.00
28606;BME280;46498;49.968;7.754;2023-03-23T23:55:43;96038.00;;;10.11;100.00
